sensor_id;sensor_type;location;lat;lon;timestamp;temperature;humidity
70456;DHT22;57916;51.996;5.180;2024-01-30T00:00:29;11.60;75.50
70456;DHT22;57916;51.996;5.180;2024-01-30T00:02:56;11.50;76.60
70456;DHT22;57916;51.996;5.180;2024-01-30T00:05:23;11.50;77.30
70456;DHT22;57916;51.996;5.180;2024-01-30T00:07:50;11.50;77.80
70456;DHT22;57916;51.996;5.180;2024-01-30T00:10:17;11.50;77.70
70456;DHT22;57916;51.996;5.180;2024-01-30T00:12:44;11.50;78.00
70456;DHT22;57916;51.996;5.180;2024-01-30T00:15:11;11.40;78.10
70456;DHT22;57916;51.996;5.180;2024-01-30T00:17:38;11.40;78.20
70456;DHT22;57916;51.996;5.180;2024-01-30T00:20:06;11.40;77.80
70456;DHT22;57916;51.996;5.180;2024-01-30T00:22:34;11.50;78.30
70456;DHT22;57916;51.996;5.180;2024-01-30T00:25:01;11.40;77.90
70456;DHT22;57916;51.996;5.180;2024-01-30T00:27:28;11.40;77.80
70456;DHT22;57916;51.996;5.180;2024-01-30T00:29:55;11.40;77.90
70456;DHT22;57916;51.996;5.180;2024-01-30T00:32:22;11.40;77.80
70456;DHT22;57916;51.996;5.180;2024-01-30T00:34:50;11.50;78.10
70456;DHT22;57916;51.996;5.180;2024-01-30T00:37:17;11.40;79.10
70456;DHT22;57916;51.996;5.180;2024-01-30T00:39:44;11.40;78.50
70456;DHT22;57916;51.996;5.180;2024-01-30T00:42:11;11.40;78.70
70456;DHT22;57916;51.996;5.180;2024-01-30T00:44:38;11.40;78.80
70456;DHT22;57916;51.996;5.180;2024-01-30T00:47:06;11.40;78.90
70456;DHT22;57916;51.996;5.180;2024-01-30T00:49:33;11.50;78.80
70456;DHT22;57916;51.996;5.180;2024-01-30T00:52:00;11.40;78.80
70456;DHT22;57916;51.996;5.180;2024-01-30T00:54:27;11.40;78.70
70456;DHT22;57916;51.996;5.180;2024-01-30T00:56:54;11.50;78.70
70456;DHT22;57916;51.996;5.180;2024-01-30T00:59:21;11.40;78.40
70456;DHT22;57916;51.996;5.180;2024-01-30T01:01:48;11.50;78.40
70456;DHT22;57916;51.996;5.180;2024-01-30T01:04:16;11.40;78.30
70456;DHT22;57916;51.996;5.180;2024-01-30T01:06:44;11.50;78.40
70456;DHT22;57916;51.996;5.180;2024-01-30T01:09:11;11.40;78.30
70456;DHT22;57916;51.996;5.180;2024-01-30T01:11:39;11.40;78.30
70456;DHT22;57916;51.996;5.180;2024-01-30T01:14:06;11.50;78.30
70456;DHT22;57916;51.996;5.180;2024-01-30T01:16:33;11.40;78.30
70456;DHT22;57916;51.996;5.180;2024-01-30T01:19:00;11.50;78.40
70456;DHT22;57916;51.996;5.180;2024-01-30T01:21:28;11.40;78.50
70456;DHT22;57916;51.996;5.180;2024-01-30T01:23:55;11.40;78.60
70456;DHT22;57916;51.996;5.180;2024-01-30T01:26:23;11.40;78.80
70456;DHT22;57916;51.996;5.180;2024-01-30T01:28:50;11.30;78.80
70456;DHT22;57916;51.996;5.180;2024-01-30T01:31:17;11.30;79.00
70456;DHT22;57916;51.996;5.180;2024-01-30T01:33:45;11.20;79.00
70456;DHT22;57916;51.996;5.180;2024-01-30T01:36:13;11.20;79.10
70456;DHT22;57916;51.996;5.180;2024-01-30T01:38:40;11.20;78.80
70456;DHT22;57916;51.996;5.180;2024-01-30T01:41:08;11.20;78.70
70456;DHT22;57916;51.996;5.180;2024-01-30T01:43:34;11.20;78.60
70456;DHT22;57916;51.996;5.180;2024-01-30T01:46:02;11.20;78.60
70456;DHT22;57916;51.996;5.180;2024-01-30T01:48:29;11.20;78.60
70456;DHT22;57916;51.996;5.180;2024-01-30T01:50:57;11.30;78.50
70456;DHT22;57916;51.996;5.180;2024-01-30T01:53:25;11.20;78.40
70456;DHT22;57916;51.996;5.180;2024-01-30T01:55:53;11.30;78.40
70456;DHT22;57916;51.996;5.180;2024-01-30T01:58:21;11.20;78.30
70456;DHT22;57916;51.996;5.180;2024-01-30T02:00:50;11.20;77.80
70456;DHT22;57916;51.996;5.180;2024-01-30T02:03:18;11.20;77.70
70456;DHT22;57916;51.996;5.180;2024-01-30T02:05:50;11.20;77.70
70456;DHT22;57916;51.996;5.180;2024-01-30T02:08:17;11.20;77.50
70456;DHT22;57916;51.996;5.180;2024-01-30T02:10:44;11.20;77.60
70456;DHT22;57916;51.996;5.180;2024-01-30T02:13:12;11.10;77.40
70456;DHT22;57916;51.996;5.180;2024-01-30T02:15:39;11.20;76.20
70456;DHT22;57916;51.996;5.180;2024-01-30T02:18:06;11.20;74.90
70456;DHT22;57916;51.996;5.180;2024-01-30T02:20:35;11.20;74.30
70456;DHT22;57916;51.996;5.180;2024-01-30T02:23:02;11.20;75.00
70456;DHT22;57916;51.996;5.180;2024-01-30T02:25:39;11.20;74.90
70456;DHT22;57916;51.996;5.180;2024-01-30T02:28:13;11.10;74.70
70456;DHT22;57916;51.996;5.180;2024-01-30T02:30:42;11.20;74.60
70456;DHT22;57916;51.996;5.180;2024-01-30T02:33:09;11.10;73.90
70456;DHT22;57916;51.996;5.180;2024-01-30T02:35:37;11.10;73.60
70456;DHT22;57916;51.996;5.180;2024-01-30T02:38:04;11.10;73.30
70456;DHT22;57916;51.996;5.180;2024-01-30T02:40:31;11.10;74.10
70456;DHT22;57916;51.996;5.180;2024-01-30T02:42:59;11.10;73.60
70456;DHT22;57916;51.996;5.180;2024-01-30T02:45:27;11.10;73.40
70456;DHT22;57916;51.996;5.180;2024-01-30T02:47:54;11.00;73.60
70456;DHT22;57916;51.996;5.180;2024-01-30T02:50:21;10.90;74.00
70456;DHT22;57916;51.996;5.180;2024-01-30T02:52:48;10.80;75.20
70456;DHT22;57916;51.996;5.180;2024-01-30T02:55:15;10.70;74.10
70456;DHT22;57916;51.996;5.180;2024-01-30T02:57:44;10.70;75.00
70456;DHT22;57916;51.996;5.180;2024-01-30T03:00:12;10.60;75.30
70456;DHT22;57916;51.996;5.180;2024-01-30T03:02:39;10.60;76.20
70456;DHT22;57916;51.996;5.180;2024-01-30T03:05:08;10.60;77.40
70456;DHT22;57916;51.996;5.180;2024-01-30T03:07:35;10.60;77.90
70456;DHT22;57916;51.996;5.180;2024-01-30T03:10:04;10.60;78.10
70456;DHT22;57916;51.996;5.180;2024-01-30T03:12:31;10.60;78.30
70456;DHT22;57916;51.996;5.180;2024-01-30T03:14:58;10.70;78.10
70456;DHT22;57916;51.996;5.180;2024-01-30T03:17:25;10.70;77.70
70456;DHT22;57916;51.996;5.180;2024-01-30T03:19:52;10.70;77.20
70456;DHT22;57916;51.996;5.180;2024-01-30T03:22:19;10.70;76.60
70456;DHT22;57916;51.996;5.180;2024-01-30T03:24:46;10.80;76.30
70456;DHT22;57916;51.996;5.180;2024-01-30T03:27:13;10.70;76.10
70456;DHT22;57916;51.996;5.180;2024-01-30T03:29:40;10.70;76.40
70456;DHT22;57916;51.996;5.180;2024-01-30T03:32:07;10.70;76.70
70456;DHT22;57916;51.996;5.180;2024-01-30T03:34:34;10.70;77.00
70456;DHT22;57916;51.996;5.180;2024-01-30T03:37:02;10.70;77.30
70456;DHT22;57916;51.996;5.180;2024-01-30T03:39:30;10.70;78.00
70456;DHT22;57916;51.996;5.180;2024-01-30T03:41:57;10.70;78.30
70456;DHT22;57916;51.996;5.180;2024-01-30T03:44:24;10.70;78.30
70456;DHT22;57916;51.996;5.180;2024-01-30T03:46:51;10.70;78.60
70456;DHT22;57916;51.996;5.180;2024-01-30T03:49:18;10.70;78.90
70456;DHT22;57916;51.996;5.180;2024-01-30T03:51:45;10.70;79.30
70456;DHT22;57916;51.996;5.180;2024-01-30T03:54:14;10.70;79.70
70456;DHT22;57916;51.996;5.180;2024-01-30T03:56:41;10.70;79.90
70456;DHT22;57916;51.996;5.180;2024-01-30T03:59:08;10.70;79.90
70456;DHT22;57916;51.996;5.180;2024-01-30T04:01:35;10.70;80.00
70456;DHT22;57916;51.996;5.180;2024-01-30T04:04:02;10.80;79.80
70456;DHT22;57916;51.996;5.180;2024-01-30T04:06:29;10.80;79.70
70456;DHT22;57916;51.996;5.180;2024-01-30T04:08:56;10.90;79.40
70456;DHT22;57916;51.996;5.180;2024-01-30T04:11:23;10.90;79.40
70456;DHT22;57916;51.996;5.180;2024-01-30T04:13:50;10.90;80.30
70456;DHT22;57916;51.996;5.180;2024-01-30T04:16:21;11.00;79.90
70456;DHT22;57916;51.996;5.180;2024-01-30T04:18:49;11.00;80.10
70456;DHT22;57916;51.996;5.180;2024-01-30T04:21:16;11.10;80.60
70456;DHT22;57916;51.996;5.180;2024-01-30T04:23:43;11.10;80.60
70456;DHT22;57916;51.996;5.180;2024-01-30T04:26:10;11.10;80.50
70456;DHT22;57916;51.996;5.180;2024-01-30T04:28:37;11.20;80.50
70456;DHT22;57916;51.996;5.180;2024-01-30T04:31:04;11.20;80.60
70456;DHT22;57916;51.996;5.180;2024-01-30T04:33:32;11.20;80.60
70456;DHT22;57916;51.996;5.180;2024-01-30T04:35:59;11.30;80.70
70456;DHT22;57916;51.996;5.180;2024-01-30T04:38:26;11.30;80.50
70456;DHT22;57916;51.996;5.180;2024-01-30T04:40:53;11.30;80.20
70456;DHT22;57916;51.996;5.180;2024-01-30T04:43:20;11.40;80.10
70456;DHT22;57916;51.996;5.180;2024-01-30T04:45:49;11.40;80.10
70456;DHT22;57916;51.996;5.180;2024-01-30T04:48:16;11.40;80.10
70456;DHT22;57916;51.996;5.180;2024-01-30T04:50:43;11.40;79.90
70456;DHT22;57916;51.996;5.180;2024-01-30T04:53:10;11.40;79.80
70456;DHT22;57916;51.996;5.180;2024-01-30T04:55:37;11.40;79.80
70456;DHT22;57916;51.996;5.180;2024-01-30T04:58:04;11.50;79.90
70456;DHT22;57916;51.996;5.180;2024-01-30T05:00:31;11.50;79.80
70456;DHT22;57916;51.996;5.180;2024-01-30T05:02:58;11.50;79.90
70456;DHT22;57916;51.996;5.180;2024-01-30T05:05:25;11.50;79.80
70456;DHT22;57916;51.996;5.180;2024-01-30T05:07:52;11.60;79.80
70456;DHT22;57916;51.996;5.180;2024-01-30T05:10:19;11.50;79.70
70456;DHT22;57916;51.996;5.180;2024-01-30T05:12:46;11.60;79.80
70456;DHT22;57916;51.996;5.180;2024-01-30T05:15:13;11.60;79.70
70456;DHT22;57916;51.996;5.180;2024-01-30T05:17:40;11.60;79.60
70456;DHT22;57916;51.996;5.180;2024-01-30T05:20:08;11.60;79.70
70456;DHT22;57916;51.996;5.180;2024-01-30T05:22:36;11.60;79.80
70456;DHT22;57916;51.996;5.180;2024-01-30T05:25:04;11.60;79.80
70456;DHT22;57916;51.996;5.180;2024-01-30T05:27:32;11.60;80.00
70456;DHT22;57916;51.996;5.180;2024-01-30T05:29:59;11.60;80.60
70456;DHT22;57916;51.996;5.180;2024-01-30T05:32:26;11.70;79.70
70456;DHT22;57916;51.996;5.180;2024-01-30T05:34:53;11.70;79.70
70456;DHT22;57916;51.996;5.180;2024-01-30T05:37:20;11.70;79.90
70456;DHT22;57916;51.996;5.180;2024-01-30T05:39:47;11.70;79.90
70456;DHT22;57916;51.996;5.180;2024-01-30T05:42:14;11.70;79.80
70456;DHT22;57916;51.996;5.180;2024-01-30T05:44:43;11.70;79.70
70456;DHT22;57916;51.996;5.180;2024-01-30T05:47:10;11.70;79.60
70456;DHT22;57916;51.996;5.180;2024-01-30T05:49:37;11.70;79.70
70456;DHT22;57916;51.996;5.180;2024-01-30T05:52:06;11.70;79.70
70456;DHT22;57916;51.996;5.180;2024-01-30T05:54:33;11.70;79.80
70456;DHT22;57916;51.996;5.180;2024-01-30T05:57:00;11.70;79.70
70456;DHT22;57916;51.996;5.180;2024-01-30T05:59:27;11.80;79.80
70456;DHT22;57916;51.996;5.180;2024-01-30T06:01:54;11.80;79.70
70456;DHT22;57916;51.996;5.180;2024-01-30T06:04:21;11.80;79.70
70456;DHT22;57916;51.996;5.180;2024-01-30T06:06:48;11.80;79.70
70456;DHT22;57916;51.996;5.180;2024-01-30T06:09:15;11.80;79.70
70456;DHT22;57916;51.996;5.180;2024-01-30T06:11:42;11.90;79.70
70456;DHT22;57916;51.996;5.180;2024-01-30T06:14:09;11.90;79.70
70456;DHT22;57916;51.996;5.180;2024-01-30T06:16:36;11.90;79.70
70456;DHT22;57916;51.996;5.180;2024-01-30T06:19:03;11.90;79.80
70456;DHT22;57916;51.996;5.180;2024-01-30T06:21:30;11.90;79.80
70456;DHT22;57916;51.996;5.180;2024-01-30T06:23:59;12.00;79.70
70456;DHT22;57916;51.996;5.180;2024-01-30T06:26:26;12.00;79.60
70456;DHT22;57916;51.996;5.180;2024-01-30T06:28:52;12.10;79.40
70456;DHT22;57916;51.996;5.180;2024-01-30T06:31:20;12.10;79.40
70456;DHT22;57916;51.996;5.180;2024-01-30T06:33:47;12.10;79.50
70456;DHT22;57916;51.996;5.180;2024-01-30T06:36:14;12.10;79.60
70456;DHT22;57916;51.996;5.180;2024-01-30T06:38:41;12.10;79.70
70456;DHT22;57916;51.996;5.180;2024-01-30T06:41:08;12.10;79.70
70456;DHT22;57916;51.996;5.180;2024-01-30T06:43:35;12.20;79.70
70456;DHT22;57916;51.996;5.180;2024-01-30T06:46:03;12.20;80.00
70456;DHT22;57916;51.996;5.180;2024-01-30T06:48:30;12.20;79.90
70456;DHT22;57916;51.996;5.180;2024-01-30T06:50:57;12.20;79.90
70456;DHT22;57916;51.996;5.180;2024-01-30T06:53:24;12.20;80.10
70456;DHT22;57916;51.996;5.180;2024-01-30T06:55:53;12.30;80.10
70456;DHT22;57916;51.996;5.180;2024-01-30T06:58:20;12.30;80.20
70456;DHT22;57916;51.996;5.180;2024-01-30T07:00:47;12.30;80.00
70456;DHT22;57916;51.996;5.180;2024-01-30T07:03:14;12.40;80.00
70456;DHT22;57916;51.996;5.180;2024-01-30T07:05:41;12.40;80.10
70456;DHT22;57916;51.996;5.180;2024-01-30T07:08:08;12.40;80.10
70456;DHT22;57916;51.996;5.180;2024-01-30T07:10:35;12.40;80.00
70456;DHT22;57916;51.996;5.180;2024-01-30T07:13:03;12.40;80.00
70456;DHT22;57916;51.996;5.180;2024-01-30T07:15:32;12.40;80.10
70456;DHT22;57916;51.996;5.180;2024-01-30T07:17:59;12.40;80.20
70456;DHT22;57916;51.996;5.180;2024-01-30T07:20:26;12.40;80.00
70456;DHT22;57916;51.996;5.180;2024-01-30T07:22:53;12.50;79.90
70456;DHT22;57916;51.996;5.180;2024-01-30T07:25:20;12.50;79.90
70456;DHT22;57916;51.996;5.180;2024-01-30T07:27:48;12.50;79.80
70456;DHT22;57916;51.996;5.180;2024-01-30T07:30:15;12.50;80.00
70456;DHT22;57916;51.996;5.180;2024-01-30T07:32:44;12.50;80.00
70456;DHT22;57916;51.996;5.180;2024-01-30T07:35:11;12.50;80.00
70456;DHT22;57916;51.996;5.180;2024-01-30T07:37:38;12.60;80.00
70456;DHT22;57916;51.996;5.180;2024-01-30T07:40:05;12.60;79.70
70456;DHT22;57916;51.996;5.180;2024-01-30T07:42:33;12.60;79.70
70456;DHT22;57916;51.996;5.180;2024-01-30T07:45:00;12.70;79.80
70456;DHT22;57916;51.996;5.180;2024-01-30T07:47:27;12.70;79.80
70456;DHT22;57916;51.996;5.180;2024-01-30T07:49:54;12.70;79.80
70456;DHT22;57916;51.996;5.180;2024-01-30T07:52:21;12.70;79.90
70456;DHT22;57916;51.996;5.180;2024-01-30T07:54:49;12.70;79.90
70456;DHT22;57916;51.996;5.180;2024-01-30T07:57:17;12.70;80.10
70456;DHT22;57916;51.996;5.180;2024-01-30T07:59:44;12.70;80.20
70456;DHT22;57916;51.996;5.180;2024-01-30T08:02:12;12.70;80.20
70456;DHT22;57916;51.996;5.180;2024-01-30T08:04:40;12.80;81.10
70456;DHT22;57916;51.996;5.180;2024-01-30T08:07:07;12.80;80.20
70456;DHT22;57916;51.996;5.180;2024-01-30T08:09:34;12.80;80.20
70456;DHT22;57916;51.996;5.180;2024-01-30T08:12:01;12.80;80.30
70456;DHT22;57916;51.996;5.180;2024-01-30T08:14:28;12.90;80.40
70456;DHT22;57916;51.996;5.180;2024-01-30T08:16:55;12.90;80.40
70456;DHT22;57916;51.996;5.180;2024-01-30T08:19:22;12.90;80.40
70456;DHT22;57916;51.996;5.180;2024-01-30T08:21:50;13.00;80.50
70456;DHT22;57916;51.996;5.180;2024-01-30T08:24:17;13.00;80.50
70456;DHT22;57916;51.996;5.180;2024-01-30T08:26:44;13.00;80.60
70456;DHT22;57916;51.996;5.180;2024-01-30T08:29:11;13.10;80.60
70456;DHT22;57916;51.996;5.180;2024-01-30T08:31:38;13.20;80.70
70456;DHT22;57916;51.996;5.180;2024-01-30T08:34:05;13.20;80.70
70456;DHT22;57916;51.996;5.180;2024-01-30T08:36:32;13.20;80.70
70456;DHT22;57916;51.996;5.180;2024-01-30T08:38:59;13.30;80.70
70456;DHT22;57916;51.996;5.180;2024-01-30T08:41:30;13.40;80.70
70456;DHT22;57916;51.996;5.180;2024-01-30T08:43:57;13.40;80.60
70456;DHT22;57916;51.996;5.180;2024-01-30T08:46:24;13.40;80.30
70456;DHT22;57916;51.996;5.180;2024-01-30T08:48:52;13.50;80.30
70456;DHT22;57916;51.996;5.180;2024-01-30T08:51:20;13.50;80.10
70456;DHT22;57916;51.996;5.180;2024-01-30T08:53:47;13.50;80.20
70456;DHT22;57916;51.996;5.180;2024-01-30T08:56:14;13.50;80.10
70456;DHT22;57916;51.996;5.180;2024-01-30T08:58:43;13.60;80.20
70456;DHT22;57916;51.996;5.180;2024-01-30T09:01:10;13.60;80.00
70456;DHT22;57916;51.996;5.180;2024-01-30T09:03:37;13.60;80.00
70456;DHT22;57916;51.996;5.180;2024-01-30T09:06:10;13.70;80.00
70456;DHT22;57916;51.996;5.180;2024-01-30T09:08:38;13.70;79.90
70456;DHT22;57916;51.996;5.180;2024-01-30T09:11:13;13.80;79.80
70456;DHT22;57916;51.996;5.180;2024-01-30T09:13:40;13.80;79.60
70456;DHT22;57916;51.996;5.180;2024-01-30T09:16:07;13.90;79.60
70456;DHT22;57916;51.996;5.180;2024-01-30T09:18:34;13.90;79.40
70456;DHT22;57916;51.996;5.180;2024-01-30T09:21:02;13.90;79.30
70456;DHT22;57916;51.996;5.180;2024-01-30T09:23:29;13.90;79.20
70456;DHT22;57916;51.996;5.180;2024-01-30T09:25:56;13.90;79.10
70456;DHT22;57916;51.996;5.180;2024-01-30T09:28:23;13.90;79.10
70456;DHT22;57916;51.996;5.180;2024-01-30T09:30:55;13.90;79.10
70456;DHT22;57916;51.996;5.180;2024-01-30T09:33:22;13.90;79.20
70456;DHT22;57916;51.996;5.180;2024-01-30T09:35:49;13.90;79.10
70456;DHT22;57916;51.996;5.180;2024-01-30T09:38:16;13.90;79.10
70456;DHT22;57916;51.996;5.180;2024-01-30T09:40:44;13.90;79.20
70456;DHT22;57916;51.996;5.180;2024-01-30T09:43:16;13.90;79.40
70456;DHT22;57916;51.996;5.180;2024-01-30T09:45:45;13.90;79.40
70456;DHT22;57916;51.996;5.180;2024-01-30T09:48:13;13.90;79.50
70456;DHT22;57916;51.996;5.180;2024-01-30T09:50:41;14.00;79.60
70456;DHT22;57916;51.996;5.180;2024-01-30T09:53:08;14.00;79.50
70456;DHT22;57916;51.996;5.180;2024-01-30T09:55:36;14.10;79.50
70456;DHT22;57916;51.996;5.180;2024-01-30T09:58:03;14.10;79.50
70456;DHT22;57916;51.996;5.180;2024-01-30T10:00:30;14.10;79.40
70456;DHT22;57916;51.996;5.180;2024-01-30T10:02:58;14.20;79.30
70456;DHT22;57916;51.996;5.180;2024-01-30T10:05:27;14.20;79.10
70456;DHT22;57916;51.996;5.180;2024-01-30T10:07:56;14.20;79.10
70456;DHT22;57916;51.996;5.180;2024-01-30T10:10:24;14.20;79.10
70456;DHT22;57916;51.996;5.180;2024-01-30T10:12:51;14.30;79.30
70456;DHT22;57916;51.996;5.180;2024-01-30T10:15:19;14.30;79.40
70456;DHT22;57916;51.996;5.180;2024-01-30T10:17:46;14.40;79.30
70456;DHT22;57916;51.996;5.180;2024-01-30T10:20:13;14.40;79.00
70456;DHT22;57916;51.996;5.180;2024-01-30T10:22:41;14.50;79.00
70456;DHT22;57916;51.996;5.180;2024-01-30T10:25:11;14.60;79.10
70456;DHT22;57916;51.996;5.180;2024-01-30T10:27:39;14.70;78.90
70456;DHT22;57916;51.996;5.180;2024-01-30T10:30:07;14.80;78.60
70456;DHT22;57916;51.996;5.180;2024-01-30T10:32:34;14.90;78.10
70456;DHT22;57916;51.996;5.180;2024-01-30T10:35:02;15.00;77.40
70456;DHT22;57916;51.996;5.180;2024-01-30T10:37:30;15.00;76.90
70456;DHT22;57916;51.996;5.180;2024-01-30T10:40:03;15.00;76.40
70456;DHT22;57916;51.996;5.180;2024-01-30T10:42:36;15.00;76.10
70456;DHT22;57916;51.996;5.180;2024-01-30T10:45:07;15.00;75.90
70456;DHT22;57916;51.996;5.180;2024-01-30T10:47:36;15.00;75.90
70456;DHT22;57916;51.996;5.180;2024-01-30T10:50:05;14.90;75.90
70456;DHT22;57916;51.996;5.180;2024-01-30T10:52:32;14.90;75.90
70456;DHT22;57916;51.996;5.180;2024-01-30T10:55:00;14.80;76.10
70456;DHT22;57916;51.996;5.180;2024-01-30T10:57:27;14.90;76.40
70456;DHT22;57916;51.996;5.180;2024-01-30T11:00:00;14.90;76.10
70456;DHT22;57916;51.996;5.180;2024-01-30T11:02:27;14.90;75.90
70456;DHT22;57916;51.996;5.180;2024-01-30T11:04:59;15.00;75.50
70456;DHT22;57916;51.996;5.180;2024-01-30T11:07:28;14.90;75.30
70456;DHT22;57916;51.996;5.180;2024-01-30T11:10:00;14.90;74.90
70456;DHT22;57916;51.996;5.180;2024-01-30T11:12:32;14.90;74.40
70456;DHT22;57916;51.996;5.180;2024-01-30T11:15:06;14.90;73.90
70456;DHT22;57916;51.996;5.180;2024-01-30T11:17:49;14.90;73.40
70456;DHT22;57916;51.996;5.180;2024-01-30T11:20:27;14.80;73.30
70456;DHT22;57916;51.996;5.180;2024-01-30T11:22:58;14.80;73.00
70456;DHT22;57916;51.996;5.180;2024-01-30T11:25:26;14.70;73.10
70456;DHT22;57916;51.996;5.180;2024-01-30T11:27:54;14.70;72.80
70456;DHT22;57916;51.996;5.180;2024-01-30T11:33:06;14.60;72.80
70456;DHT22;57916;51.996;5.180;2024-01-30T11:35:39;14.60;72.80
70456;DHT22;57916;51.996;5.180;2024-01-30T11:38:09;14.50;72.70
70456;DHT22;57916;51.996;5.180;2024-01-30T11:40:38;14.50;72.60
70456;DHT22;57916;51.996;5.180;2024-01-30T11:43:07;14.50;72.30
70456;DHT22;57916;51.996;5.180;2024-01-30T11:45:35;14.50;72.00
70456;DHT22;57916;51.996;5.180;2024-01-30T11:48:03;14.50;72.10
70456;DHT22;57916;51.996;5.180;2024-01-30T11:50:35;14.50;72.40
70456;DHT22;57916;51.996;5.180;2024-01-30T11:53:05;14.50;72.10
70456;DHT22;57916;51.996;5.180;2024-01-30T11:55:32;14.50;72.40
70456;DHT22;57916;51.996;5.180;2024-01-30T11:58:01;14.50;71.90
70456;DHT22;57916;51.996;5.180;2024-01-30T12:00:30;14.60;71.60
70456;DHT22;57916;51.996;5.180;2024-01-30T12:03:02;14.50;70.60
70456;DHT22;57916;51.996;5.180;2024-01-30T12:05:30;14.50;70.60
70456;DHT22;57916;51.996;5.180;2024-01-30T12:07:58;14.50;70.40
70456;DHT22;57916;51.996;5.180;2024-01-30T12:10:29;14.40;69.90
70456;DHT22;57916;51.996;5.180;2024-01-30T12:12:56;14.40;69.50
70456;DHT22;57916;51.996;5.180;2024-01-30T12:15:24;14.30;69.40
70456;DHT22;57916;51.996;5.180;2024-01-30T12:17:51;14.20;69.70
70456;DHT22;57916;51.996;5.180;2024-01-30T12:20:19;14.10;70.20
70456;DHT22;57916;51.996;5.180;2024-01-30T12:22:48;14.00;70.40
70456;DHT22;57916;51.996;5.180;2024-01-30T12:25:18;14.00;70.70
70456;DHT22;57916;51.996;5.180;2024-01-30T12:27:47;14.00;71.30
70456;DHT22;57916;51.996;5.180;2024-01-30T12:30:18;13.90;71.20
70456;DHT22;57916;51.996;5.180;2024-01-30T12:32:49;13.80;71.40
70456;DHT22;57916;51.996;5.180;2024-01-30T12:35:18;13.70;71.50
70456;DHT22;57916;51.996;5.180;2024-01-30T12:37:47;13.70;71.80
70456;DHT22;57916;51.996;5.180;2024-01-30T12:40:15;13.60;71.50
70456;DHT22;57916;51.996;5.180;2024-01-30T12:42:43;13.60;71.50
70456;DHT22;57916;51.996;5.180;2024-01-30T12:45:10;13.40;71.30
70456;DHT22;57916;51.996;5.180;2024-01-30T12:47:37;13.40;71.60
70456;DHT22;57916;51.996;5.180;2024-01-30T12:50:04;13.40;71.70
70456;DHT22;57916;51.996;5.180;2024-01-30T12:52:31;13.30;71.70
70456;DHT22;57916;51.996;5.180;2024-01-30T12:54:59;13.30;71.70
70456;DHT22;57916;51.996;5.180;2024-01-30T12:57:26;13.30;71.70
70456;DHT22;57916;51.996;5.180;2024-01-30T12:59:53;13.30;71.60
70456;DHT22;57916;51.996;5.180;2024-01-30T13:02:20;13.40;71.50
70456;DHT22;57916;51.996;5.180;2024-01-30T13:04:47;13.40;71.60
70456;DHT22;57916;51.996;5.180;2024-01-30T13:07:16;13.40;71.80
70456;DHT22;57916;51.996;5.180;2024-01-30T13:09:43;13.40;71.70
70456;DHT22;57916;51.996;5.180;2024-01-30T13:12:10;13.40;71.80
70456;DHT22;57916;51.996;5.180;2024-01-30T13:14:38;13.40;71.90
70456;DHT22;57916;51.996;5.180;2024-01-30T13:17:05;13.40;71.90
70456;DHT22;57916;51.996;5.180;2024-01-30T13:19:32;13.30;72.10
70456;DHT22;57916;51.996;5.180;2024-01-30T13:21:59;13.30;72.30
70456;DHT22;57916;51.996;5.180;2024-01-30T13:24:26;13.40;72.40
70456;DHT22;57916;51.996;5.180;2024-01-30T13:26:53;13.40;72.10
70456;DHT22;57916;51.996;5.180;2024-01-30T13:29:20;13.40;72.40
70456;DHT22;57916;51.996;5.180;2024-01-30T13:31:47;13.30;72.60
70456;DHT22;57916;51.996;5.180;2024-01-30T13:34:14;13.30;72.80
70456;DHT22;57916;51.996;5.180;2024-01-30T13:36:42;13.30;73.00
70456;DHT22;57916;51.996;5.180;2024-01-30T13:39:10;13.20;73.30
70456;DHT22;57916;51.996;5.180;2024-01-30T13:41:39;13.20;73.60
70456;DHT22;57916;51.996;5.180;2024-01-30T13:44:06;13.20;73.90
70456;DHT22;57916;51.996;5.180;2024-01-30T13:46:33;13.20;74.10
70456;DHT22;57916;51.996;5.180;2024-01-30T13:49:00;13.10;74.00
70456;DHT22;57916;51.996;5.180;2024-01-30T13:51:28;13.10;74.20
70456;DHT22;57916;51.996;5.180;2024-01-30T13:53:55;13.10;74.10
70456;DHT22;57916;51.996;5.180;2024-01-30T13:56:22;13.10;74.40
70456;DHT22;57916;51.996;5.180;2024-01-30T13:58:49;13.20;74.20
70456;DHT22;57916;51.996;5.180;2024-01-30T14:01:17;13.20;73.90
70456;DHT22;57916;51.996;5.180;2024-01-30T14:03:45;13.20;73.80
70456;DHT22;57916;51.996;5.180;2024-01-30T14:06:12;13.30;73.40
70456;DHT22;57916;51.996;5.180;2024-01-30T14:08:39;13.20;73.40
70456;DHT22;57916;51.996;5.180;2024-01-30T14:11:12;13.20;73.20
70456;DHT22;57916;51.996;5.180;2024-01-30T14:13:39;13.20;73.30
70456;DHT22;57916;51.996;5.180;2024-01-30T14:16:06;13.20;73.60
70456;DHT22;57916;51.996;5.180;2024-01-30T14:18:34;13.20;74.60
70456;DHT22;57916;51.996;5.180;2024-01-30T14:21:01;13.20;73.80
70456;DHT22;57916;51.996;5.180;2024-01-30T14:23:28;13.20;73.70
70456;DHT22;57916;51.996;5.180;2024-01-30T14:25:55;13.20;73.90
70456;DHT22;57916;51.996;5.180;2024-01-30T14:28:22;13.10;73.90
70456;DHT22;57916;51.996;5.180;2024-01-30T14:30:49;13.10;74.40
70456;DHT22;57916;51.996;5.180;2024-01-30T14:33:16;13.00;74.70
70456;DHT22;57916;51.996;5.180;2024-01-30T14:35:43;13.00;75.00
70456;DHT22;57916;51.996;5.180;2024-01-30T14:38:10;12.90;75.30
70456;DHT22;57916;51.996;5.180;2024-01-30T14:40:38;12.90;75.70
70456;DHT22;57916;51.996;5.180;2024-01-30T14:43:05;12.90;76.00
70456;DHT22;57916;51.996;5.180;2024-01-30T14:45:32;12.80;76.30
70456;DHT22;57916;51.996;5.180;2024-01-30T14:47:59;12.80;76.70
70456;DHT22;57916;51.996;5.180;2024-01-30T14:50:27;12.80;77.10
70456;DHT22;57916;51.996;5.180;2024-01-30T14:52:55;12.80;78.30
70456;DHT22;57916;51.996;5.180;2024-01-30T14:55:22;12.70;77.60
70456;DHT22;57916;51.996;5.180;2024-01-30T14:57:51;12.70;78.00
70456;DHT22;57916;51.996;5.180;2024-01-30T15:00:18;12.60;78.20
70456;DHT22;57916;51.996;5.180;2024-01-30T15:02:45;12.60;78.40
70456;DHT22;57916;51.996;5.180;2024-01-30T15:05:14;12.60;78.50
70456;DHT22;57916;51.996;5.180;2024-01-30T15:07:41;12.60;78.70
70456;DHT22;57916;51.996;5.180;2024-01-30T15:10:09;12.60;78.80
70456;DHT22;57916;51.996;5.180;2024-01-30T15:12:37;12.50;78.90
70456;DHT22;57916;51.996;5.180;2024-01-30T15:15:07;12.50;79.10
70456;DHT22;57916;51.996;5.180;2024-01-30T15:17:34;12.50;79.20
70456;DHT22;57916;51.996;5.180;2024-01-30T15:20:02;12.50;79.20
70456;DHT22;57916;51.996;5.180;2024-01-30T15:22:31;12.50;79.30
70456;DHT22;57916;51.996;5.180;2024-01-30T15:24:58;12.40;79.30
70456;DHT22;57916;51.996;5.180;2024-01-30T15:27:25;12.40;79.50
70456;DHT22;57916;51.996;5.180;2024-01-30T15:29:56;12.40;79.70
70456;DHT22;57916;51.996;5.180;2024-01-30T15:32:22;12.40;79.70
70456;DHT22;57916;51.996;5.180;2024-01-30T15:34:49;12.40;79.80